Terminal Aerodrome Forecast
Issued by NWS Upton, NY

Home | Current Version | Previous Version | Text Only | Print | Product List | Glossary On
Versions: 1 2 3 4 5 6 7 8 9 10 11 12 13 14 15 16 17 18 19 20 21 22 23 24
000
FTUS41 KOKX 232300
TAFBDR
TAF
KBDR 232327Z 2400/2424 22010KT P6SM SCT150 BKN250
      TEMPO 2402/2404 5SM TSRA SCT030 BKN050CB
     FM240400 26006KT 5SM SHRA BR BKN050 OVC120
     FM240700 36009KT P6SM SCT050 OVC120
     FM241400 01012G18KT P6SM SCT050 SCT120 BKN250
     FM242200 36009KT P6SM FEW050 BKN250=

USA.gov is the U.S. government's official web portal to all federal, state and local government web resources and services.